sensor_id;sensor_type;location;lat;lon;timestamp;pressure;altitude;pressure_sealevel;temperature;humidity
59337;BME280;45115;52.002;4.686;2023-06-14T00:00:15;101567.13;;;18.85;54.64
59337;BME280;45115;52.002;4.686;2023-06-14T00:02:42;101580.63;;;18.88;54.57
59337;BME280;45115;52.002;4.686;2023-06-14T00:05:08;101574.44;;;18.78;55.26
59337;BME280;45115;52.002;4.686;2023-06-14T00:07:39;101570.78;;;18.78;55.26
59337;BME280;45115;52.002;4.686;2023-06-14T00:10:10;101579.25;;;18.84;55.16
59337;BME280;45115;52.002;4.686;2023-06-14T00:12:38;101566.44;;;18.83;55.28
59337;BME280;45115;52.002;4.686;2023-06-14T00:15:07;101579.06;;;18.86;55.45
59337;BME280;45115;52.002;4.686;2023-06-14T00:17:35;101576.84;;;18.81;56.01
59337;BME280;45115;52.002;4.686;2023-06-14T00:20:03;101578.25;;;18.77;56.61
59337;BME280;45115;52.002;4.686;2023-06-14T00:22:32;101582.28;;;18.67;57.13
59337;BME280;45115;52.002;4.686;2023-06-14T00:24:59;101579.16;;;18.70;56.96
59337;BME280;45115;52.002;4.686;2023-06-14T00:27:27;101577.66;;;18.59;57.48
59337;BME280;45115;52.002;4.686;2023-06-14T00:29:56;101573.16;;;18.50;57.82
59337;BME280;45115;52.002;4.686;2023-06-14T00:32:25;101590.50;;;18.52;57.69
59337;BME280;45115;52.002;4.686;2023-06-14T00:34:55;101595.19;;;18.52;57.78
59337;BME280;45115;52.002;4.686;2023-06-14T00:37:22;101589.81;;;18.42;58.78
59337;BME280;45115;52.002;4.686;2023-06-14T00:39:49;101582.69;;;18.32;58.57
59337;BME280;45115;52.002;4.686;2023-06-14T00:42:24;101573.53;;;18.23;59.11
59337;BME280;45115;52.002;4.686;2023-06-14T00:44:53;101559.88;;;18.14;58.94
59337;BME280;45115;52.002;4.686;2023-06-14T00:47:21;101572.03;;;18.05;59.45
59337;BME280;45115;52.002;4.686;2023-06-14T00:49:49;101554.34;;;18.06;59.30
59337;BME280;45115;52.002;4.686;2023-06-14T00:52:20;101580.00;;;18.00;60.27
59337;BME280;45115;52.002;4.686;2023-06-14T00:54:47;101597.34;;;18.02;60.28
59337;BME280;45115;52.002;4.686;2023-06-14T00:57:15;101541.38;;;17.74;60.01
59337;BME280;45115;52.002;4.686;2023-06-14T00:59:44;101567.53;;;17.88;60.20
59337;BME280;45115;52.002;4.686;2023-06-14T01:02:13;101583.63;;;17.92;60.53
59337;BME280;45115;52.002;4.686;2023-06-14T01:04:43;101582.78;;;17.83;60.27
59337;BME280;45115;52.002;4.686;2023-06-14T01:07:17;101550.38;;;17.60;59.85
59337;BME280;45115;52.002;4.686;2023-06-14T01:09:51;101584.34;;;17.86;59.98
59337;BME280;45115;52.002;4.686;2023-06-14T01:12:29;101582.78;;;17.83;58.85
59337;BME280;45115;52.002;4.686;2023-06-14T01:15:00;101567.72;;;17.78;58.57
59337;BME280;45115;52.002;4.686;2023-06-14T01:17:29;101580.34;;;17.89;58.06
59337;BME280;45115;52.002;4.686;2023-06-14T01:19:58;101577.75;;;17.87;57.96
59337;BME280;45115;52.002;4.686;2023-06-14T01:22:26;101581.56;;;17.78;57.64
59337;BME280;45115;52.002;4.686;2023-06-14T01:24:56;101574.31;;;17.77;57.24
59337;BME280;45115;52.002;4.686;2023-06-14T01:27:24;101564.78;;;17.71;56.53
59337;BME280;45115;52.002;4.686;2023-06-14T01:29:54;101573.78;;;17.81;56.40
59337;BME280;45115;52.002;4.686;2023-06-14T01:32:23;101573.94;;;17.88;55.41
59337;BME280;45115;52.002;4.686;2023-06-14T01:34:51;101575.00;;;17.87;55.38
59337;BME280;45115;52.002;4.686;2023-06-14T01:37:19;101554.72;;;17.87;54.81
59337;BME280;45115;52.002;4.686;2023-06-14T01:39:48;101577.94;;;17.86;55.19
59337;BME280;45115;52.002;4.686;2023-06-14T01:42:19;101576.19;;;17.84;54.98
59337;BME280;45115;52.002;4.686;2023-06-14T01:44:47;101559.91;;;17.65;54.97
59337;BME280;45115;52.002;4.686;2023-06-14T01:47:14;101555.59;;;17.55;54.94
59337;BME280;45115;52.002;4.686;2023-06-14T01:49:41;101573.06;;;17.79;54.64
59337;BME280;45115;52.002;4.686;2023-06-14T01:52:08;101551.44;;;17.59;54.82
59337;BME280;45115;52.002;4.686;2023-06-14T01:54:35;101581.06;;;17.83;54.43
59337;BME280;45115;52.002;4.686;2023-06-14T01:57:07;101575.88;;;17.71;54.43
59337;BME280;45115;52.002;4.686;2023-06-14T01:59:35;101571.19;;;17.64;55.03
59337;BME280;45115;52.002;4.686;2023-06-14T02:02:02;101547.63;;;17.52;55.39
59337;BME280;45115;52.002;4.686;2023-06-14T02:04:31;101557.34;;;17.56;54.75
59337;BME280;45115;52.002;4.686;2023-06-14T02:06:58;101556.47;;;17.47;54.87
59337;BME280;45115;52.002;4.686;2023-06-14T02:09:25;101571.50;;;17.53;55.23
59337;BME280;45115;52.002;4.686;2023-06-14T02:11:53;101557.81;;;17.43;55.00
59337;BME280;45115;52.002;4.686;2023-06-14T02:14:20;101548.44;;;17.36;55.26
59337;BME280;45115;52.002;4.686;2023-06-14T02:16:49;101566.16;;;17.51;55.02
59337;BME280;45115;52.002;4.686;2023-06-14T02:19:16;101573.97;;;17.56;54.62
59337;BME280;45115;52.002;4.686;2023-06-14T02:21:43;101563.53;;;17.42;55.00
59337;BME280;45115;52.002;4.686;2023-06-14T02:24:12;101568.72;;;17.45;55.20
59337;BME280;45115;52.002;4.686;2023-06-14T02:26:38;101570.25;;;17.31;56.29
59337;BME280;45115;52.002;4.686;2023-06-14T02:29:06;101577.53;;;17.40;55.85
59337;BME280;45115;52.002;4.686;2023-06-14T02:31:36;101578.91;;;17.28;56.59
59337;BME280;45115;52.002;4.686;2023-06-14T02:34:04;101578.41;;;17.25;56.60
59337;BME280;45115;52.002;4.686;2023-06-14T02:36:30;101578.88;;;17.20;56.71
59337;BME280;45115;52.002;4.686;2023-06-14T02:38:59;101575.94;;;17.14;56.67
59337;BME280;45115;52.002;4.686;2023-06-14T02:41:26;101581.31;;;17.23;56.69
59337;BME280;45115;52.002;4.686;2023-06-14T02:43:53;101587.88;;;17.14;57.03
59337;BME280;45115;52.002;4.686;2023-06-14T02:46:21;101580.78;;;17.12;56.30
59337;BME280;45115;52.002;4.686;2023-06-14T02:48:49;101587.53;;;17.17;57.07
59337;BME280;45115;52.002;4.686;2023-06-14T02:51:17;101585.78;;;17.08;57.55
59337;BME280;45115;52.002;4.686;2023-06-14T02:53:43;101586.81;;;17.07;57.58
59337;BME280;45115;52.002;4.686;2023-06-14T02:56:10;101593.38;;;17.06;57.46
59337;BME280;45115;52.002;4.686;2023-06-14T02:58:37;101590.97;;;17.03;57.37
59337;BME280;45115;52.002;4.686;2023-06-14T03:01:05;101594.09;;;17.08;56.88
59337;BME280;45115;52.002;4.686;2023-06-14T03:03:34;101598.44;;;17.11;57.20
59337;BME280;45115;52.002;4.686;2023-06-14T03:06:00;101600.31;;;17.10;57.07
59337;BME280;45115;52.002;4.686;2023-06-14T03:08:33;101600.50;;;17.09;57.07
59337;BME280;45115;52.002;4.686;2023-06-14T03:11:07;101594.63;;;17.12;57.14
59337;BME280;45115;52.002;4.686;2023-06-14T03:13:34;101590.78;;;16.97;57.61
59337;BME280;45115;52.002;4.686;2023-06-14T03:16:04;101609.09;;;16.90;58.33
59337;BME280;45115;52.002;4.686;2023-06-14T03:18:35;101614.28;;;16.93;58.27
59337;BME280;45115;52.002;4.686;2023-06-14T03:21:02;101615.31;;;16.92;58.48
59337;BME280;45115;52.002;4.686;2023-06-14T03:23:32;101613.03;;;16.87;59.17
59337;BME280;45115;52.002;4.686;2023-06-14T03:26:00;101618.75;;;16.86;59.51
59337;BME280;45115;52.002;4.686;2023-06-14T03:28:27;101610.19;;;16.71;59.38
59337;BME280;45115;52.002;4.686;2023-06-14T03:30:55;101615.91;;;16.69;59.79
59337;BME280;45115;52.002;4.686;2023-06-14T03:33:23;101617.97;;;16.67;60.23
59337;BME280;45115;52.002;4.686;2023-06-14T03:35:51;101611.19;;;16.36;61.32
59337;BME280;45115;52.002;4.686;2023-06-14T03:38:17;101628.84;;;16.35;62.50
59337;BME280;45115;52.002;4.686;2023-06-14T03:40:46;101634.91;;;16.39;63.13
59337;BME280;45115;52.002;4.686;2023-06-14T03:43:13;101637.22;;;16.26;63.80
59337;BME280;45115;52.002;4.686;2023-06-14T03:45:39;101640.34;;;16.31;63.99
59337;BME280;45115;52.002;4.686;2023-06-14T03:48:08;101633.69;;;16.16;64.08
59337;BME280;45115;52.002;4.686;2023-06-14T03:50:35;101641.06;;;16.07;64.95
59337;BME280;45115;52.002;4.686;2023-06-14T03:53:03;101639.28;;;16.24;63.90
59337;BME280;45115;52.002;4.686;2023-06-14T03:55:31;101647.16;;;16.36;62.70
59337;BME280;45115;52.002;4.686;2023-06-14T03:58:00;101642.66;;;16.35;63.42
59337;BME280;45115;52.002;4.686;2023-06-14T04:00:27;101638.69;;;16.38;63.13
59337;BME280;45115;52.002;4.686;2023-06-14T04:02:54;101644.28;;;16.46;62.32
59337;BME280;45115;52.002;4.686;2023-06-14T04:05:22;101641.44;;;16.38;62.42
59337;BME280;45115;52.002;4.686;2023-06-14T04:07:53;101643.63;;;16.52;61.51
59337;BME280;45115;52.002;4.686;2023-06-14T04:10:21;101649.09;;;16.69;60.28
59337;BME280;45115;52.002;4.686;2023-06-14T04:12:48;101647.06;;;16.80;59.90
59337;BME280;45115;52.002;4.686;2023-06-14T04:15:18;101654.91;;;16.84;59.86
59337;BME280;45115;52.002;4.686;2023-06-14T04:17:44;101658.38;;;16.86;59.32
59337;BME280;45115;52.002;4.686;2023-06-14T04:20:11;101651.44;;;16.90;59.42
59337;BME280;45115;52.002;4.686;2023-06-14T04:22:38;101653.56;;;16.96;58.87
59337;BME280;45115;52.002;4.686;2023-06-14T04:25:07;101650.97;;;17.03;58.85
59337;BME280;45115;52.002;4.686;2023-06-14T04:27:33;101661.88;;;17.46;57.97
59337;BME280;45115;52.002;4.686;2023-06-14T04:30:02;101651.56;;;18.52;54.31
59337;BME280;45115;52.002;4.686;2023-06-14T04:32:41;101653.84;;;19.34;51.48
59337;BME280;45115;52.002;4.686;2023-06-14T04:35:10;101649.94;;;19.74;50.17
59337;BME280;45115;52.002;4.686;2023-06-14T04:37:39;101653.19;;;19.85;49.40
59337;BME280;45115;52.002;4.686;2023-06-14T04:40:08;101662.97;;;19.73;49.41
59337;BME280;45115;52.002;4.686;2023-06-14T04:42:36;101656.66;;;19.57;49.88
59337;BME280;45115;52.002;4.686;2023-06-14T04:45:06;101656.31;;;19.82;49.44
59337;BME280;45115;52.002;4.686;2023-06-14T04:47:35;101652.31;;;19.85;49.09
59337;BME280;45115;52.002;4.686;2023-06-14T04:50:06;101665.78;;;19.43;50.00
59337;BME280;45115;52.002;4.686;2023-06-14T04:52:34;101664.28;;;18.85;51.65
59337;BME280;45115;52.002;4.686;2023-06-14T04:55:01;101661.78;;;18.28;53.79
59337;BME280;45115;52.002;4.686;2023-06-14T04:57:28;101660.94;;;18.03;54.40
59337;BME280;45115;52.002;4.686;2023-06-14T04:59:58;101656.75;;;18.15;54.03
59337;BME280;45115;52.002;4.686;2023-06-14T05:02:26;101657.38;;;19.51;50.13
59337;BME280;45115;52.002;4.686;2023-06-14T05:04:56;101650.16;;;20.69;46.93
59337;BME280;45115;52.002;4.686;2023-06-14T05:07:24;101649.56;;;20.74;46.25
59337;BME280;45115;52.002;4.686;2023-06-14T05:09:51;101648.84;;;21.80;44.47
59337;BME280;45115;52.002;4.686;2023-06-14T05:12:18;101660.59;;;22.39;42.94
59337;BME280;45115;52.002;4.686;2023-06-14T05:14:46;101657.94;;;22.31;42.93
59337;BME280;45115;52.002;4.686;2023-06-14T05:17:15;101663.56;;;22.59;42.68
59337;BME280;45115;52.002;4.686;2023-06-14T05:19:42;101659.63;;;23.15;40.84
59337;BME280;45115;52.002;4.686;2023-06-14T05:22:09;101661.31;;;23.09;40.81
59337;BME280;45115;52.002;4.686;2023-06-14T05:24:37;101666.00;;;23.37;40.23
59337;BME280;45115;52.002;4.686;2023-06-14T05:27:04;101662.22;;;23.64;39.34
59337;BME280;45115;52.002;4.686;2023-06-14T05:29:31;101663.63;;;23.94;38.59
59337;BME280;45115;52.002;4.686;2023-06-14T05:31:57;101659.78;;;24.99;38.41
59337;BME280;45115;52.002;4.686;2023-06-14T05:34:24;101665.66;;;25.93;35.72
59337;BME280;45115;52.002;4.686;2023-06-14T05:36:50;101669.34;;;25.56;34.21
59337;BME280;45115;52.002;4.686;2023-06-14T05:39:17;101656.47;;;25.22;35.03
59337;BME280;45115;52.002;4.686;2023-06-14T05:41:45;101651.72;;;25.29;34.88
59337;BME280;45115;52.002;4.686;2023-06-14T05:44:12;101661.91;;;26.68;32.36
59337;BME280;45115;52.002;4.686;2023-06-14T05:46:38;101666.34;;;27.18;31.59
59337;BME280;45115;52.002;4.686;2023-06-14T05:49:06;101663.34;;;26.95;31.55
59337;BME280;45115;52.002;4.686;2023-06-14T05:51:32;101669.59;;;26.23;32.79
59337;BME280;45115;52.002;4.686;2023-06-14T05:53:59;101665.50;;;26.75;31.61
59337;BME280;45115;52.002;4.686;2023-06-14T05:56:26;101672.19;;;26.98;30.46
59337;BME280;45115;52.002;4.686;2023-06-14T05:58:54;101665.22;;;27.73;29.19
59337;BME280;45115;52.002;4.686;2023-06-14T06:01:21;101672.25;;;26.92;30.85
59337;BME280;45115;52.002;4.686;2023-06-14T06:03:48;101675.59;;;26.82;32.00
59337;BME280;45115;52.002;4.686;2023-06-14T06:06:14;101669.66;;;26.41;32.00
59337;BME280;45115;52.002;4.686;2023-06-14T06:08:41;101669.53;;;26.54;32.51
59337;BME280;45115;52.002;4.686;2023-06-14T06:11:08;101665.38;;;26.88;31.68
59337;BME280;45115;52.002;4.686;2023-06-14T06:13:35;101671.06;;;26.81;32.15
59337;BME280;45115;52.002;4.686;2023-06-14T06:16:03;101677.28;;;26.34;32.86
59337;BME280;45115;52.002;4.686;2023-06-14T06:18:30;101668.88;;;25.96;33.36
59337;BME280;45115;52.002;4.686;2023-06-14T06:20:57;101675.66;;;25.25;34.20
59337;BME280;45115;52.002;4.686;2023-06-14T06:23:23;101678.84;;;25.92;34.03
59337;BME280;45115;52.002;4.686;2023-06-14T06:25:50;101675.13;;;26.61;32.29
59337;BME280;45115;52.002;4.686;2023-06-14T06:28:17;101679.47;;;27.06;31.52
59337;BME280;45115;52.002;4.686;2023-06-14T06:30:43;101681.44;;;27.41;30.63
59337;BME280;45115;52.002;4.686;2023-06-14T06:33:12;101681.69;;;27.58;30.19
59337;BME280;45115;52.002;4.686;2023-06-14T06:35:39;101685.41;;;27.16;31.23
59337;BME280;45115;52.002;4.686;2023-06-14T06:38:06;101692.78;;;26.43;31.31
59337;BME280;45115;52.002;4.686;2023-06-14T06:40:34;101688.25;;;27.52;30.07
59337;BME280;45115;52.002;4.686;2023-06-14T06:43:01;101687.88;;;27.30;29.92
59337;BME280;45115;52.002;4.686;2023-06-14T06:45:28;101697.19;;;28.15;28.86
59337;BME280;45115;52.002;4.686;2023-06-14T06:47:54;101704.13;;;28.12;28.40
59337;BME280;45115;52.002;4.686;2023-06-14T06:50:23;101712.53;;;27.83;28.73
59337;BME280;45115;52.002;4.686;2023-06-14T06:52:50;101705.28;;;27.75;29.45
59337;BME280;45115;52.002;4.686;2023-06-14T06:55:16;101706.56;;;28.09;29.04
59337;BME280;45115;52.002;4.686;2023-06-14T06:57:43;101710.53;;;28.19;28.59
59337;BME280;45115;52.002;4.686;2023-06-14T07:00:11;101710.91;;;27.93;27.94
59337;BME280;45115;52.002;4.686;2023-06-14T07:02:38;101712.13;;;27.68;28.56
59337;BME280;45115;52.002;4.686;2023-06-14T07:05:05;101711.56;;;28.36;28.15
59337;BME280;45115;52.002;4.686;2023-06-14T07:07:33;101715.69;;;27.93;28.59
59337;BME280;45115;52.002;4.686;2023-06-14T07:10:00;101721.47;;;27.98;28.26
59337;BME280;45115;52.002;4.686;2023-06-14T07:12:30;101725.47;;;27.72;29.07
59337;BME280;45115;52.002;4.686;2023-06-14T07:14:59;101727.25;;;27.67;28.99
59337;BME280;45115;52.002;4.686;2023-06-14T07:17:28;101728.66;;;27.58;29.26
59337;BME280;45115;52.002;4.686;2023-06-14T07:19:55;101732.16;;;27.17;29.30
59337;BME280;45115;52.002;4.686;2023-06-14T07:22:22;101738.56;;;27.24;29.82
59337;BME280;45115;52.002;4.686;2023-06-14T07:24:50;101736.41;;;27.44;29.85
59337;BME280;45115;52.002;4.686;2023-06-14T07:27:17;101735.88;;;28.08;29.17
59337;BME280;45115;52.002;4.686;2023-06-14T07:29:43;101739.41;;;27.67;28.62
59337;BME280;45115;52.002;4.686;2023-06-14T07:32:10;101739.78;;;27.71;28.26
59337;BME280;45115;52.002;4.686;2023-06-14T07:34:36;101738.69;;;28.08;28.65
59337;BME280;45115;52.002;4.686;2023-06-14T07:37:03;101741.38;;;29.08;27.50
59337;BME280;45115;52.002;4.686;2023-06-14T07:39:30;101741.47;;;28.67;27.76
59337;BME280;45115;52.002;4.686;2023-06-14T07:41:58;101745.78;;;29.04;27.09
59337;BME280;45115;52.002;4.686;2023-06-14T07:44:27;101740.13;;;28.10;28.10
59337;BME280;45115;52.002;4.686;2023-06-14T07:46:54;101751.69;;;28.20;27.92
59337;BME280;45115;52.002;4.686;2023-06-14T07:49:23;101741.94;;;28.64;27.85
59337;BME280;45115;52.002;4.686;2023-06-14T07:51:50;101740.03;;;28.46;27.82
59337;BME280;45115;52.002;4.686;2023-06-14T07:54:17;101760.25;;;28.14;27.88
59337;BME280;45115;52.002;4.686;2023-06-14T07:56:43;101762.25;;;27.95;28.71
59337;BME280;45115;52.002;4.686;2023-06-14T07:59:11;101761.50;;;28.47;28.15
59337;BME280;45115;52.002;4.686;2023-06-14T08:01:38;101765.03;;;28.73;27.72
59337;BME280;45115;52.002;4.686;2023-06-14T08:04:05;101763.69;;;28.87;27.25
59337;BME280;45115;52.002;4.686;2023-06-14T08:06:33;101762.41;;;28.60;28.36
59337;BME280;45115;52.002;4.686;2023-06-14T08:08:59;101764.94;;;28.91;27.93
59337;BME280;45115;52.002;4.686;2023-06-14T08:11:26;101765.78;;;28.50;27.58
59337;BME280;45115;52.002;4.686;2023-06-14T08:13:53;101762.78;;;28.04;27.88
59337;BME280;45115;52.002;4.686;2023-06-14T08:16:21;101771.00;;;27.69;28.31
59337;BME280;45115;52.002;4.686;2023-06-14T08:18:48;101754.78;;;27.83;28.94
59337;BME280;45115;52.002;4.686;2023-06-14T08:21:15;101758.97;;;27.62;29.00
59337;BME280;45115;52.002;4.686;2023-06-14T08:23:42;101752.94;;;27.59;28.83
59337;BME280;45115;52.002;4.686;2023-06-14T08:26:09;101749.31;;;28.06;29.42
59337;BME280;45115;52.002;4.686;2023-06-14T08:28:36;101754.34;;;28.75;27.71
59337;BME280;45115;52.002;4.686;2023-06-14T08:31:03;101760.53;;;28.95;27.49
59337;BME280;45115;52.002;4.686;2023-06-14T08:33:30;101755.59;;;28.79;26.64
59337;BME280;45115;52.002;4.686;2023-06-14T08:35:59;101752.41;;;28.87;26.70
59337;BME280;45115;52.002;4.686;2023-06-14T08:38:25;101770.75;;;28.36;27.00
59337;BME280;45115;52.002;4.686;2023-06-14T08:40:52;101768.84;;;28.19;27.47
59337;BME280;45115;52.002;4.686;2023-06-14T08:43:23;101763.66;;;28.04;27.87
59337;BME280;45115;52.002;4.686;2023-06-14T08:45:54;101765.50;;;28.40;27.87
59337;BME280;45115;52.002;4.686;2023-06-14T08:48:26;101760.50;;;27.94;27.82
59337;BME280;45115;52.002;4.686;2023-06-14T08:50:55;101752.78;;;28.49;27.33
59337;BME280;45115;52.002;4.686;2023-06-14T08:53:27;101754.81;;;28.30;27.02
59337;BME280;45115;52.002;4.686;2023-06-14T08:55:57;101753.75;;;28.13;27.68
59337;BME280;45115;52.002;4.686;2023-06-14T08:58:27;101753.88;;;28.89;27.37
59337;BME280;45115;52.002;4.686;2023-06-14T09:00:55;101763.56;;;28.82;26.66
59337;BME280;45115;52.002;4.686;2023-06-14T09:03:21;101757.81;;;28.47;25.68
59337;BME280;45115;52.002;4.686;2023-06-14T09:05:56;101759.84;;;28.58;26.00
59337;BME280;45115;52.002;4.686;2023-06-14T09:08:25;101762.78;;;28.04;27.12
59337;BME280;45115;52.002;4.686;2023-06-14T09:10:51;101771.91;;;28.17;27.13
59337;BME280;45115;52.002;4.686;2023-06-14T09:13:18;101771.13;;;28.10;27.29
59337;BME280;45115;52.002;4.686;2023-06-14T09:15:45;101773.56;;;28.54;26.63
59337;BME280;45115;52.002;4.686;2023-06-14T09:18:11;101776.19;;;28.79;26.54
59337;BME280;45115;52.002;4.686;2023-06-14T09:20:38;101768.13;;;28.83;26.67
59337;BME280;45115;52.002;4.686;2023-06-14T09:23:06;101764.59;;;29.22;26.12
59337;BME280;45115;52.002;4.686;2023-06-14T09:25:33;101766.00;;;28.78;25.86
59337;BME280;45115;52.002;4.686;2023-06-14T09:28:07;101767.63;;;28.44;26.13
59337;BME280;45115;52.002;4.686;2023-06-14T09:30:35;101768.16;;;28.23;26.95
59337;BME280;45115;52.002;4.686;2023-06-14T09:33:02;101769.25;;;28.52;27.10
59337;BME280;45115;52.002;4.686;2023-06-14T09:35:31;101776.50;;;28.60;26.71
59337;BME280;45115;52.002;4.686;2023-06-14T09:37:58;101771.03;;;28.17;26.80
59337;BME280;45115;52.002;4.686;2023-06-14T09:40:26;101780.19;;;28.60;26.44
59337;BME280;45115;52.002;4.686;2023-06-14T09:42:53;101776.00;;;28.33;26.46
59337;BME280;45115;52.002;4.686;2023-06-14T09:45:23;101789.31;;;28.44;26.21
59337;BME280;45115;52.002;4.686;2023-06-14T09:47:50;101767.94;;;28.36;25.66
59337;BME280;45115;52.002;4.686;2023-06-14T09:50:17;101780.75;;;28.21;25.88
59337;BME280;45115;52.002;4.686;2023-06-14T09:52:44;101781.41;;;28.34;25.78
59337;BME280;45115;52.002;4.686;2023-06-14T09:55:14;101777.75;;;28.64;25.51
59337;BME280;45115;52.002;4.686;2023-06-14T09:57:45;101777.91;;;28.50;24.70
59337;BME280;45115;52.002;4.686;2023-06-14T10:00:15;101778.69;;;28.28;24.37
59337;BME280;45115;52.002;4.686;2023-06-14T10:02:47;101771.63;;;28.37;24.12
59337;BME280;45115;52.002;4.686;2023-06-14T10:05:20;101785.84;;;28.60;24.17
59337;BME280;45115;52.002;4.686;2023-06-14T10:07:53;101772.50;;;28.79;23.40
59337;BME280;45115;52.002;4.686;2023-06-14T10:10:19;101781.63;;;28.51;24.53
59337;BME280;45115;52.002;4.686;2023-06-14T10:12:48;101786.47;;;28.62;23.00
59337;BME280;45115;52.002;4.686;2023-06-14T10:15:18;101778.84;;;28.63;23.03
59337;BME280;45115;52.002;4.686;2023-06-14T10:17:50;101770.09;;;28.23;23.39
59337;BME280;45115;52.002;4.686;2023-06-14T10:20:27;101775.31;;;28.37;23.72
59337;BME280;45115;52.002;4.686;2023-06-14T10:23:00;101766.16;;;28.24;23.81
59337;BME280;45115;52.002;4.686;2023-06-14T10:25:28;101771.81;;;28.53;23.68
59337;BME280;45115;52.002;4.686;2023-06-14T10:28:14;101775.66;;;28.59;23.49
59337;BME280;45115;52.002;4.686;2023-06-14T10:31:03;101775.56;;;28.66;23.36
59337;BME280;45115;52.002;4.686;2023-06-14T10:33:30;101763.94;;;28.44;24.78
59337;BME280;45115;52.002;4.686;2023-06-14T10:36:11;101776.88;;;28.51;23.89
59337;BME280;45115;52.002;4.686;2023-06-14T10:38:57;101768.13;;;28.83;23.70
59337;BME280;45115;52.002;4.686;2023-06-14T10:41:25;101773.06;;;28.99;24.03
59337;BME280;45115;52.002;4.686;2023-06-14T10:44:10;101771.00;;;29.17;23.41
59337;BME280;45115;52.002;4.686;2023-06-14T10:46:59;101762.28;;;29.42;23.02
59337;BME280;45115;52.002;4.686;2023-06-14T10:49:43;101778.66;;;28.87;22.29
59337;BME280;45115;52.002;4.686;2023-06-14T10:52:12;101775.22;;;28.85;22.88
59337;BME280;45115;52.002;4.686;2023-06-14T10:54:59;101777.31;;;28.90;23.25
59337;BME280;45115;52.002;4.686;2023-06-14T10:57:25;101774.25;;;28.91;22.85
59337;BME280;45115;52.002;4.686;2023-06-14T10:59:53;101770.94;;;28.83;22.66
59337;BME280;45115;52.002;4.686;2023-06-14T11:02:44;101767.88;;;28.96;22.62
59337;BME280;45115;52.002;4.686;2023-06-14T11:05:14;101757.75;;;29.18;23.33
59337;BME280;45115;52.002;4.686;2023-06-14T11:08:04;101761.84;;;28.92;22.53
59337;BME280;45115;52.002;4.686;2023-06-14T11:10:38;101768.00;;;29.01;22.49
59337;BME280;45115;52.002;4.686;2023-06-14T11:13:06;101763.25;;;29.36;22.06
59337;BME280;45115;52.002;4.686;2023-06-14T11:15:36;101757.06;;;29.04;22.85
59337;BME280;45115;52.002;4.686;2023-06-14T11:18:05;101763.59;;;29.05;21.96
59337;BME280;45115;52.002;4.686;2023-06-14T11:20:33;101758.53;;;28.84;22.75
59337;BME280;45115;52.002;4.686;2023-06-14T11:23:01;101774.06;;;28.33;22.92
59337;BME280;45115;52.002;4.686;2023-06-14T11:25:28;101755.03;;;27.99;22.62
59337;BME280;45115;52.002;4.686;2023-06-14T11:27:55;101760.75;;;27.93;23.01
59337;BME280;45115;52.002;4.686;2023-06-14T11:30:22;101762.97;;;28.20;22.48
59337;BME280;45115;52.002;4.686;2023-06-14T11:32:53;101751.31;;;28.76;22.75
59337;BME280;45115;52.002;4.686;2023-06-14T11:35:22;101749.38;;;29.11;20.77
59337;BME280;45115;52.002;4.686;2023-06-14T11:37:52;101742.84;;;28.99;21.72
59337;BME280;45115;52.002;4.686;2023-06-14T11:40:25;101751.19;;;28.83;21.75
59337;BME280;45115;52.002;4.686;2023-06-14T11:42:58;101741.03;;;28.93;21.69
59337;BME280;45115;52.002;4.686;2023-06-14T11:45:25;101740.16;;;29.04;21.36
59337;BME280;45115;52.002;4.686;2023-06-14T11:47:54;101744.47;;;28.95;21.37
59337;BME280;45115;52.002;4.686;2023-06-14T11:50:22;101739.78;;;29.01;20.83
59337;BME280;45115;52.002;4.686;2023-06-14T11:52:53;101733.28;;;28.89;21.40
59337;BME280;45115;52.002;4.686;2023-06-14T11:55:20;101740.84;;;28.77;22.04
59337;BME280;45115;52.002;4.686;2023-06-14T11:57:47;101736.94;;;29.01;23.02
59337;BME280;45115;52.002;4.686;2023-06-14T12:00:14;101749.25;;;28.53;22.35
59337;BME280;45115;52.002;4.686;2023-06-14T12:02:42;101742.69;;;28.60;22.16
59337;BME280;45115;52.002;4.686;2023-06-14T12:05:11;101741.44;;;28.55;22.84
59337;BME280;45115;52.002;4.686;2023-06-14T12:07:37;101738.84;;;29.18;22.32
59337;BME280;45115;52.002;4.686;2023-06-14T12:10:07;101731.66;;;29.62;21.40
59337;BME280;45115;52.002;4.686;2023-06-14T12:12:37;101736.09;;;29.81;21.17
59337;BME280;45115;52.002;4.686;2023-06-14T12:15:04;101737.09;;;29.52;20.78
59337;BME280;45115;52.002;4.686;2023-06-14T12:17:32;101740.31;;;29.21;21.11
59337;BME280;45115;52.002;4.686;2023-06-14T12:20:05;101740.31;;;29.44;21.71
59337;BME280;45115;52.002;4.686;2023-06-14T12:22:37;101740.75;;;29.64;21.00
59337;BME280;45115;52.002;4.686;2023-06-14T12:25:04;101738.66;;;29.83;20.62
59337;BME280;45115;52.002;4.686;2023-06-14T12:27:31;101743.22;;;29.03;21.35
59337;BME280;45115;52.002;4.686;2023-06-14T12:29:59;101746.31;;;29.36;21.58
59337;BME280;45115;52.002;4.686;2023-06-14T12:32:26;101742.53;;;29.30;21.84
59337;BME280;45115;52.002;4.686;2023-06-14T12:34:53;101751.09;;;29.24;22.34
59337;BME280;45115;52.002;4.686;2023-06-14T12:37:19;101745.56;;;29.52;22.16
59337;BME280;45115;52.002;4.686;2023-06-14T12:39:47;101739.41;;;28.97;22.77
59337;BME280;45115;52.002;4.686;2023-06-14T12:42:16;101744.34;;;29.48;23.03
59337;BME280;45115;52.002;4.686;2023-06-14T12:44:43;101739.91;;;29.52;21.82
59337;BME280;45115;52.002;4.686;2023-06-14T12:47:09;101741.59;;;28.84;22.55
59337;BME280;45115;52.002;4.686;2023-06-14T12:49:36;101746.03;;;28.80;22.92
59337;BME280;45115;52.002;4.686;2023-06-14T12:52:03;101736.50;;;29.04;22.63
59337;BME280;45115;52.002;4.686;2023-06-14T12:54:30;101729.38;;;29.36;23.74
59337;BME280;45115;52.002;4.686;2023-06-14T12:56:58;101730.34;;;29.07;23.25